createdAt,value
2019-02-19T00:01:02.866Z,4.69
2019-02-19T00:03:32.410Z,4.72
2019-02-19T00:06:01.880Z,4.73
2019-02-19T00:08:31.367Z,4.65
2019-02-19T00:11:00.881Z,4.54
2019-02-19T00:13:30.388Z,4.54
2019-02-19T00:15:59.835Z,4.56
2019-02-19T00:18:29.305Z,4.53
2019-02-19T00:20:58.785Z,4.57
2019-02-19T00:23:28.335Z,4.63
2019-02-19T00:25:57.845Z,4.61
2019-02-19T00:28:27.329Z,4.57
2019-02-19T00:30:56.828Z,4.62
2019-02-19T00:33:26.269Z,4.60
2019-02-19T00:35:55.758Z,4.54
2019-02-19T00:38:25.243Z,4.53
2019-02-19T00:40:54.703Z,4.52
2019-02-19T00:43:31.763Z,4.50
2019-02-19T00:46:01.243Z,4.57
2019-02-19T00:48:30.740Z,4.61
2019-02-19T00:51:00.214Z,4.63
2019-02-19T00:53:29.766Z,4.60
2019-02-19T00:55:59.271Z,4.65
2019-02-19T00:58:28.745Z,4.63
2019-02-19T01:00:58.235Z,4.57
2019-02-19T01:03:27.813Z,4.58
2019-02-19T01:05:57.348Z,4.63
2019-02-19T01:08:26.884Z,4.61
2019-02-19T01:10:56.390Z,4.55
2019-02-19T01:13:25.862Z,4.47
2019-02-19T01:15:55.754Z,4.40
2019-02-19T01:18:25.305Z,4.42
2019-02-19T01:20:54.708Z,4.36
2019-02-19T01:23:24.183Z,4.41
2019-02-19T01:25:53.647Z,4.38
2019-02-19T01:28:23.101Z,4.37
2019-02-19T01:30:52.564Z,4.20
2019-02-19T01:33:23.031Z,4.12
2019-02-19T01:35:52.555Z,4.06
2019-02-19T01:38:22.066Z,3.98
2019-02-19T01:40:51.583Z,3.99
2019-02-19T01:43:21.081Z,3.95
2019-02-19T01:45:51.766Z,3.99
2019-02-19T01:48:21.250Z,3.97
2019-02-19T01:50:50.721Z,3.97
2019-02-19T01:53:20.191Z,3.98
2019-02-19T01:55:49.717Z,3.96
2019-02-19T01:58:19.283Z,3.94
2019-02-19T02:00:48.784Z,3.88
2019-02-19T02:03:18.367Z,3.80
2019-02-19T02:05:47.816Z,3.73
2019-02-19T02:08:17.340Z,3.69
2019-02-19T02:10:46.831Z,3.71
2019-02-19T02:13:16.364Z,3.75
2019-02-19T02:15:45.841Z,3.74
2019-02-19T02:18:15.328Z,3.65
2019-02-19T02:20:44.809Z,3.61
2019-02-19T02:23:14.305Z,3.63
2019-02-19T02:25:43.798Z,3.59
2019-02-19T02:28:13.276Z,3.63
2019-02-19T02:30:42.711Z,3.64
2019-02-19T02:33:12.220Z,3.72
2019-02-19T02:35:41.720Z,3.72
2019-02-19T02:38:11.228Z,3.71
2019-02-19T02:40:40.687Z,3.68
2019-02-19T02:43:10.169Z,3.68
2019-02-19T02:45:39.636Z,3.70
2019-02-19T02:48:09.154Z,3.71
2019-02-19T02:50:38.712Z,3.59
2019-02-19T02:53:08.219Z,3.57
2019-02-19T02:55:37.694Z,3.55
2019-02-19T02:58:08.917Z,3.58
2019-02-19T03:00:38.420Z,3.66
2019-02-19T03:03:07.937Z,3.70
2019-02-19T03:05:39.889Z,3.76
2019-02-19T03:08:09.463Z,3.64
2019-02-19T03:10:38.908Z,3.68
2019-02-19T03:13:08.377Z,3.64
2019-02-19T03:15:37.875Z,3.60
2019-02-19T03:18:07.373Z,3.64
2019-02-19T03:20:36.865Z,3.68
2019-02-19T03:23:06.363Z,3.69
2019-02-19T03:25:35.847Z,3.60
2019-02-19T03:28:05.335Z,3.50
2019-02-19T03:30:34.812Z,3.53
2019-02-19T03:33:04.283Z,3.50
2019-02-19T03:35:33.796Z,3.48
2019-02-19T03:38:03.293Z,3.47
2019-02-19T03:40:32.775Z,3.50
2019-02-19T03:43:02.271Z,3.50
2019-02-19T03:45:31.790Z,3.50
2019-02-19T03:48:01.293Z,3.47
2019-02-19T03:50:30.851Z,3.48
2019-02-19T03:53:00.410Z,3.47
2019-02-19T03:55:29.892Z,3.42
2019-02-19T03:57:59.349Z,3.36
2019-02-19T04:00:28.826Z,3.32
2019-02-19T04:02:58.303Z,3.30
2019-02-19T04:05:27.786Z,3.31
2019-02-19T04:07:57.314Z,3.32
2019-02-19T04:10:26.809Z,3.31
2019-02-19T04:12:58.272Z,3.28
2019-02-19T04:15:27.712Z,3.19
2019-02-19T04:17:57.212Z,3.20
2019-02-19T04:20:26.678Z,3.21
2019-02-19T04:22:56.143Z,3.16
2019-02-19T04:25:25.621Z,3.20
2019-02-19T04:27:55.063Z,3.23
2019-02-19T04:30:24.566Z,3.25
2019-02-19T04:32:54.064Z,3.19
2019-02-19T04:35:23.549Z,3.13
2019-02-19T04:37:53.029Z,3.14
2019-02-19T04:40:22.460Z,3.14
2019-02-19T04:42:51.950Z,3.09
2019-02-19T04:45:21.426Z,3.11
2019-02-19T04:47:50.941Z,3.03
2019-02-19T04:50:20.493Z,2.97
2019-02-19T04:52:49.981Z,2.88
2019-02-19T04:55:19.479Z,2.80
2019-02-19T04:57:48.995Z,2.87
2019-02-19T05:00:18.502Z,2.91
2019-02-19T05:02:47.967Z,2.85
2019-02-19T05:05:17.453Z,2.84
2019-02-19T05:07:46.941Z,2.83
2019-02-19T05:10:16.409Z,2.80
2019-02-19T05:12:45.938Z,2.72
2019-02-19T05:15:15.418Z,2.68
2019-02-19T05:17:44.903Z,2.77
2019-02-19T05:20:14.406Z,2.84
2019-02-19T05:22:43.881Z,2.83
2019-02-19T05:25:13.384Z,2.72
2019-02-19T05:27:42.917Z,2.70
2019-02-19T05:30:12.536Z,2.75
2019-02-19T05:32:42.013Z,2.80
2019-02-19T05:35:11.465Z,2.84
2019-02-19T05:37:42.153Z,2.88
2019-02-19T05:40:11.800Z,2.86
2019-02-19T05:42:41.317Z,2.87
2019-02-19T05:45:11.008Z,2.80
2019-02-19T05:47:40.562Z,2.79
2019-02-19T05:50:10.055Z,2.85
2019-02-19T05:52:39.595Z,2.96
2019-02-19T05:55:09.215Z,2.99
2019-02-19T05:57:38.692Z,3.01
2019-02-19T06:00:09.274Z,2.99
2019-02-19T06:02:38.882Z,2.99
2019-02-19T06:05:09.462Z,3.12
2019-02-19T06:07:38.950Z,3.11
2019-02-19T06:10:09.889Z,3.22
2019-02-19T06:12:39.363Z,3.20
2019-02-19T06:15:09.164Z,3.23
2019-02-19T06:17:38.629Z,3.20
2019-02-19T06:20:08.301Z,3.28
2019-02-19T06:22:37.766Z,3.33
2019-02-19T06:25:08.259Z,3.40
2019-02-19T06:27:37.766Z,3.51
2019-02-19T06:30:09.851Z,3.59
2019-02-19T06:32:39.359Z,3.64
2019-02-19T06:35:09.041Z,3.73
2019-02-19T06:37:38.555Z,3.82
2019-02-19T06:40:09.635Z,3.92
2019-02-19T06:42:39.171Z,3.97
2019-02-19T06:45:08.906Z,4.06
2019-02-19T06:47:38.388Z,4.12
2019-02-19T06:50:07.900Z,4.21
2019-02-19T06:52:37.492Z,4.30
2019-02-19T06:55:07.356Z,4.40
2019-02-19T06:57:36.827Z,4.40
2019-02-19T07:00:06.643Z,4.44
2019-02-19T07:02:55.032Z,4.46
2019-02-19T07:05:25.329Z,4.37
2019-02-19T07:07:54.813Z,4.46
2019-02-19T07:10:24.285Z,4.60
2019-02-19T07:12:53.791Z,4.67
2019-02-19T07:15:23.295Z,4.77
2019-02-19T07:17:52.769Z,4.89
2019-02-19T07:20:22.294Z,4.97
2019-02-19T07:22:51.797Z,5.03
2019-02-19T07:25:21.310Z,5.08
2019-02-19T07:27:50.791Z,5.11
2019-02-19T07:30:20.318Z,5.13
2019-02-19T07:32:49.782Z,5.22
2019-02-19T07:35:19.322Z,5.34
2019-02-19T07:37:48.824Z,5.42
2019-02-19T07:40:18.290Z,5.51
2019-02-19T07:42:47.758Z,5.58
2019-02-19T07:45:17.244Z,5.62
2019-02-19T07:47:46.746Z,5.68
2019-02-19T07:50:16.241Z,5.75
2019-02-19T07:52:45.741Z,5.78
2019-02-19T07:55:16.197Z,5.84
2019-02-19T07:57:45.673Z,5.95
2019-02-19T08:00:15.235Z,6.05
2019-02-19T08:02:44.683Z,6.12
2019-02-19T08:05:19.886Z,6.10
2019-02-19T08:07:49.410Z,6.17
2019-02-19T08:10:18.994Z,6.25
2019-02-19T08:12:48.639Z,6.35
2019-02-19T08:15:18.188Z,6.44
2019-02-19T08:17:47.713Z,6.58
2019-02-19T08:20:17.229Z,6.66
2019-02-19T08:22:46.702Z,6.75
2019-02-19T08:25:16.177Z,6.82
2019-02-19T08:27:45.689Z,6.85
2019-02-19T08:30:15.193Z,6.89
2019-02-19T08:32:44.716Z,6.96
2019-02-19T08:35:14.210Z,7.01
2019-02-19T08:37:45.827Z,7.15
2019-02-19T08:40:15.321Z,7.30
2019-02-19T08:42:44.848Z,7.30
2019-02-19T08:45:14.401Z,7.30
2019-02-19T08:47:43.961Z,7.37
2019-02-19T08:50:13.468Z,7.47
2019-02-19T08:52:43.127Z,7.58
2019-02-19T08:55:12.771Z,7.68
2019-02-19T08:57:42.418Z,7.76
2019-02-19T09:00:12.156Z,7.84
2019-02-19T09:02:41.739Z,7.94
2019-02-19T09:05:11.213Z,8.08
2019-02-19T09:07:40.820Z,8.14
2019-02-19T09:10:10.580Z,8.16
2019-02-19T09:12:40.099Z,8.26
2019-02-19T09:15:11.241Z,8.41
2019-02-19T09:17:40.862Z,8.53
2019-02-19T09:20:10.499Z,8.62
2019-02-19T09:22:40.028Z,8.72
2019-02-19T09:25:09.657Z,8.72
2019-02-19T09:30:26.301Z,8.84
2019-02-19T09:32:55.805Z,8.93
2019-02-19T09:35:25.392Z,9.02
2019-02-19T09:37:54.883Z,9.04
2019-02-19T09:40:24.743Z,9.20
2019-02-19T09:42:54.214Z,9.31
2019-02-19T09:45:25.366Z,9.36
2019-02-19T09:48:00.951Z,9.47
2019-02-19T09:50:26.139Z,9.57
2019-02-19T09:52:59.907Z,9.65
2019-02-19T09:55:26.952Z,9.75
2019-02-19T09:57:56.439Z,9.84
2019-02-19T10:00:26.044Z,10.01
2019-02-19T10:02:55.486Z,10.15
2019-02-19T10:05:24.991Z,10.20
2019-02-19T10:07:55.869Z,10.27
2019-02-19T10:10:25.632Z,10.30
2019-02-19T10:12:55.130Z,10.33
2019-02-19T10:15:24.644Z,10.36
2019-02-19T10:17:54.162Z,10.39
2019-02-19T10:20:23.661Z,10.45
2019-02-19T10:22:53.184Z,10.54
2019-02-19T10:25:22.674Z,10.59
2019-02-19T10:27:52.147Z,10.69
2019-02-19T10:30:21.610Z,10.80
2019-02-19T10:32:51.078Z,10.89
2019-02-19T10:35:20.598Z,10.96
2019-02-19T10:37:51.716Z,11.01
2019-02-19T10:40:21.429Z,11.13
2019-02-19T10:42:50.909Z,11.26
2019-02-19T10:45:20.493Z,11.35
2019-02-19T10:47:49.977Z,11.35
2019-02-19T10:50:19.482Z,11.37
2019-02-19T10:52:48.989Z,11.41
2019-02-19T10:55:18.544Z,11.42
2019-02-19T10:57:48.031Z,11.52
2019-02-19T11:00:18.187Z,11.63
2019-02-19T11:02:47.713Z,11.68
2019-02-19T11:05:17.192Z,11.75
2019-02-19T11:07:46.701Z,11.86
2019-02-19T11:10:16.205Z,11.85
2019-02-19T11:12:45.678Z,11.97
2019-02-19T11:15:17.311Z,12.00
2019-02-19T11:17:46.655Z,12.00
2019-02-19T11:20:16.230Z,11.95
2019-02-19T11:22:45.738Z,12.03
2019-02-19T11:25:15.353Z,12.08
2019-02-19T11:27:44.842Z,12.10
2019-02-19T11:30:16.125Z,12.22
2019-02-19T11:32:45.647Z,12.36
2019-02-19T11:35:15.160Z,12.44
2019-02-19T11:37:44.623Z,12.42
2019-02-19T11:40:14.115Z,12.52
2019-02-19T11:42:43.588Z,12.59
2019-02-19T11:45:14.053Z,12.68
2019-02-19T11:47:43.571Z,12.66
2019-02-19T11:50:13.779Z,12.62
2019-02-19T11:52:43.296Z,12.67
2019-02-19T11:55:13.351Z,12.68
2019-02-19T11:57:42.852Z,12.71
2019-02-19T12:00:16.184Z,12.80
2019-02-19T12:02:45.698Z,12.90
2019-02-19T12:05:15.187Z,12.93
2019-02-19T12:07:44.686Z,12.98
2019-02-19T12:10:15.920Z,13.03
2019-02-19T12:12:46.593Z,13.04
2019-02-19T12:15:16.353Z,13.07
2019-02-19T12:17:45.874Z,13.15
2019-02-19T12:20:15.657Z,13.17
2019-02-19T12:22:45.116Z,13.26
2019-02-19T12:25:14.632Z,13.31
2019-02-19T12:27:44.187Z,13.33
2019-02-19T12:30:14.375Z,13.44
2019-02-19T12:32:43.995Z,13.45
2019-02-19T12:35:13.741Z,13.48
2019-02-19T12:37:43.211Z,13.54
2019-02-19T12:40:12.710Z,13.60
2019-02-19T12:42:42.184Z,13.53
2019-02-19T12:45:12.096Z,13.53
2019-02-19T12:47:41.631Z,13.60
2019-02-19T12:50:12.371Z,13.69
2019-02-19T12:52:41.901Z,13.80
2019-02-19T12:55:13.882Z,13.88
2019-02-19T12:57:43.409Z,13.95
2019-02-19T13:00:14.655Z,13.98
2019-02-19T13:02:44.329Z,14.03
2019-02-19T13:05:16.413Z,14.13
2019-02-19T13:07:49.174Z,14.13
2019-02-19T13:10:18.646Z,14.09
2019-02-19T13:12:49.116Z,14.17
2019-02-19T13:15:18.741Z,14.24
2019-02-19T13:17:48.219Z,14.27
2019-02-19T13:20:17.721Z,14.24
2019-02-19T13:22:47.260Z,14.24
2019-02-19T13:25:16.893Z,14.23
2019-02-19T13:27:46.455Z,14.25
2019-02-19T13:30:16.464Z,14.28
2019-02-19T13:32:45.953Z,14.32
2019-02-19T13:35:15.684Z,14.35
2019-02-19T13:37:45.198Z,14.34
2019-02-19T13:40:15.057Z,14.37
2019-02-19T13:42:44.571Z,14.45
2019-02-19T13:45:14.657Z,14.46
2019-02-19T13:47:44.170Z,14.56
2019-02-19T13:50:16.194Z,14.56
2019-02-19T13:53:03.208Z,14.56
2019-02-19T13:55:35.687Z,14.58
2019-02-19T13:58:05.207Z,14.61
2019-02-19T14:00:37.438Z,14.65
2019-02-19T14:03:06.965Z,14.66
2019-02-19T14:05:36.490Z,14.69
2019-02-19T14:08:14.320Z,14.74
2019-02-19T14:10:37.237Z,14.75
2019-02-19T14:13:08.848Z,14.74
2019-02-19T14:15:57.246Z,14.71
2019-02-19T14:18:45.895Z,14.72
2019-02-19T14:21:32.914Z,14.75
2019-02-19T14:24:27.450Z,14.74
2019-02-19T14:27:31.319Z,14.74
2019-02-19T14:30:25.693Z,14.74
2019-02-19T14:33:32.269Z,14.77
2019-02-19T14:36:12.750Z,14.72
2019-02-19T14:39:04.263Z,14.65
2019-02-19T14:41:51.343Z,14.62
2019-02-19T14:44:52.088Z,14.65
2019-02-19T14:47:46.599Z,14.63
2019-02-19T14:50:47.154Z,14.65
2019-02-19T14:53:35.617Z,14.65
2019-02-19T14:56:23.034Z,14.64
2019-02-19T14:59:14.579Z,14.64
2019-02-19T15:02:04.986Z,14.61
2019-02-19T15:04:53.511Z,14.57
2019-02-19T15:07:48.189Z,14.53
2019-02-19T15:10:39.870Z,14.55
2019-02-19T15:13:28.303Z,14.56
2019-02-19T15:16:07.697Z,14.53
2019-02-19T15:18:54.996Z,14.50
2019-02-19T15:21:41.763Z,14.45
2019-02-19T15:24:45.311Z,14.44
2019-02-19T15:27:30.405Z,14.40
2019-02-19T15:30:21.599Z,14.32
2019-02-19T15:33:08.896Z,14.30
2019-02-19T15:36:07.254Z,14.28
2019-02-19T15:38:55.667Z,14.23
2019-02-19T15:41:59.816Z,14.22
2019-02-19T15:44:51.059Z,14.17
2019-02-19T15:47:51.798Z,14.07
2019-02-19T15:50:40.278Z,13.90
2019-02-19T15:53:30.606Z,13.68
2019-02-19T15:56:24.722Z,13.60
2019-02-19T15:59:09.290Z,13.49
2019-02-19T16:02:00.738Z,13.35
2019-02-19T16:04:49.144Z,13.21
2019-02-19T16:07:28.484Z,13.03
2019-02-19T16:10:16.910Z,12.89
2019-02-19T16:12:58.199Z,12.78
2019-02-19T16:15:45.554Z,12.64
2019-02-19T16:18:34.143Z,12.51
2019-02-19T16:21:22.647Z,12.36
2019-02-19T16:24:16.894Z,12.16
2019-02-19T16:27:08.157Z,12.00
2019-02-19T16:29:48.611Z,11.88
2019-02-19T16:32:43.328Z,11.81
2019-02-19T16:35:31.805Z,11.73
2019-02-19T16:38:19.374Z,11.68
2019-02-19T16:41:04.941Z,11.59
2019-02-19T16:43:59.309Z,11.53
2019-02-19T16:46:50.747Z,11.44
2019-02-19T16:49:45.087Z,11.53
2019-02-19T16:52:30.274Z,11.59
2019-02-19T16:55:05.253Z,11.62
2019-02-19T16:57:56.700Z,11.74
2019-02-19T17:00:51.536Z,11.82
2019-02-19T17:03:31.345Z,11.80
2019-02-19T17:06:28.585Z,11.75
2019-02-19T17:09:17.007Z,11.77
2019-02-19T17:12:14.690Z,11.75
2019-02-19T17:14:53.724Z,11.74
2019-02-19T17:17:44.985Z,11.75
2019-02-19T17:20:33.479Z,11.73
2019-02-19T17:23:20.822Z,11.69
2019-02-19T17:26:08.208Z,11.74
2019-02-19T17:28:57.705Z,11.82
2019-02-19T17:31:46.135Z,11.89
2019-02-19T17:34:46.563Z,11.95
2019-02-19T17:37:34.995Z,11.91
2019-02-19T17:40:13.473Z,11.81
2019-02-19T17:43:00.744Z,11.66
2019-02-19T17:45:49.182Z,11.59
2019-02-19T17:48:33.994Z,11.63
2019-02-19T17:51:28.779Z,11.56
2019-02-19T17:54:29.248Z,11.54
2019-02-19T17:57:20.770Z,11.43
2019-02-19T18:00:01.741Z,11.38
2019-02-19T18:02:49.324Z,11.33
2019-02-19T18:05:25.736Z,11.21
2019-02-19T18:08:08.131Z,11.13
2019-02-19T18:10:56.572Z,11.02
2019-02-19T18:13:32.881Z,10.89
2019-02-19T18:16:22.764Z,10.85
2019-02-19T18:18:52.879Z,10.78
2019-02-19T18:21:22.435Z,10.62
2019-02-19T18:23:54.748Z,10.54
2019-02-19T18:26:24.329Z,10.43
2019-02-19T18:28:57.419Z,10.41
2019-02-19T18:31:28.014Z,10.41
2019-02-19T18:33:57.571Z,10.38
2019-02-19T18:36:30.092Z,10.38
2019-02-19T18:38:59.583Z,10.35
2019-02-19T18:41:29.194Z,10.30
2019-02-19T18:44:01.778Z,10.19
2019-02-19T18:46:31.342Z,10.12
2019-02-19T18:49:00.877Z,10.02
2019-02-19T18:51:30.422Z,9.89
2019-02-19T18:53:59.950Z,9.71
2019-02-19T18:56:29.485Z,9.69
2019-02-19T18:58:59.089Z,9.69
2019-02-19T19:01:28.591Z,9.66
2019-02-19T19:03:58.483Z,9.61
2019-02-19T19:06:28.183Z,9.60
2019-02-19T19:08:57.995Z,9.54
2019-02-19T19:11:27.495Z,9.54
2019-02-19T19:13:57.100Z,9.49
2019-02-19T19:16:26.740Z,9.51
2019-02-19T19:18:56.312Z,9.53
2019-02-19T19:21:25.868Z,9.54
2019-02-19T19:23:55.451Z,9.52
2019-02-19T19:26:25.022Z,9.51
2019-02-19T19:28:54.514Z,9.48
2019-02-19T19:31:32.967Z,9.49
2019-02-19T19:33:55.313Z,9.52
2019-02-19T19:36:24.825Z,9.44
2019-02-19T19:38:54.321Z,9.35
2019-02-19T19:41:23.925Z,9.34
2019-02-19T19:43:53.418Z,9.28
2019-02-19T19:46:22.900Z,9.28
2019-02-19T19:48:52.432Z,9.28
2019-02-19T19:51:21.963Z,9.21
2019-02-19T19:53:51.520Z,9.16
2019-02-19T19:56:21.123Z,9.09
2019-02-19T19:58:50.660Z,9.05
2019-02-19T20:01:20.249Z,9.07
2019-02-19T20:03:49.793Z,9.01
2019-02-19T20:06:19.319Z,8.95
2019-02-19T20:08:48.871Z,8.90
2019-02-19T20:11:18.429Z,8.84
2019-02-19T20:13:49.101Z,8.90
2019-02-19T20:16:18.552Z,8.92
2019-02-19T20:18:48.151Z,8.91
2019-02-19T20:21:26.225Z,8.87
2019-02-19T20:23:50.105Z,8.79
2019-02-19T20:26:19.590Z,8.73
2019-02-19T20:28:49.233Z,8.62
2019-02-19T20:31:18.834Z,8.53
2019-02-19T20:33:48.405Z,8.44
2019-02-19T20:36:18.442Z,8.39
2019-02-19T20:38:47.983Z,8.34
2019-02-19T20:41:17.552Z,8.23
2019-02-19T20:43:47.064Z,8.18
2019-02-19T20:46:16.671Z,8.18
2019-02-19T20:48:46.462Z,8.14
2019-02-19T20:51:15.967Z,8.11
2019-02-19T20:53:46.370Z,8.10
2019-02-19T20:56:15.867Z,8.05
2019-02-19T20:58:45.428Z,7.96
2019-02-19T21:01:15.132Z,7.98
2019-02-19T21:03:44.734Z,7.96
2019-02-19T21:06:14.256Z,7.86
2019-02-19T21:08:43.939Z,7.79
2019-02-19T21:11:13.586Z,7.71
2019-02-19T21:13:43.115Z,7.72
2019-02-19T21:16:12.759Z,7.67
2019-02-19T21:18:42.359Z,7.53
2019-02-19T21:21:12.018Z,7.50
2019-02-19T21:23:41.627Z,7.54
2019-02-19T21:26:11.260Z,7.48
2019-02-19T21:28:40.927Z,7.26
2019-02-19T21:31:10.560Z,7.26
2019-02-19T21:33:40.182Z,7.26
2019-02-19T21:36:09.772Z,7.19
2019-02-19T21:38:39.393Z,7.16
2019-02-19T21:41:09.034Z,7.12
2019-02-19T21:43:38.731Z,7.11
2019-02-19T21:46:08.338Z,7.01
2019-02-19T21:48:38.066Z,6.97
2019-02-19T21:51:07.706Z,6.86
2019-02-19T21:53:37.423Z,6.80
2019-02-19T21:56:07.323Z,6.80
2019-02-19T21:58:36.944Z,6.86
2019-02-19T22:01:06.745Z,6.84
2019-02-19T22:03:36.337Z,6.74
2019-02-19T22:06:05.937Z,6.59
2019-02-19T22:08:35.478Z,6.56
2019-02-19T22:11:05.071Z,6.59
2019-02-19T22:13:34.677Z,6.52
2019-02-19T22:16:04.328Z,6.46
2019-02-19T22:18:34.052Z,6.49
2019-02-19T22:21:09.122Z,6.50
2019-02-19T22:23:38.641Z,6.51
2019-02-19T22:26:08.284Z,6.58
2019-02-19T22:28:37.900Z,6.61
2019-02-19T22:31:07.496Z,6.67
2019-02-19T22:33:37.134Z,6.65
2019-02-19T22:36:06.773Z,6.60
2019-02-19T22:38:36.355Z,6.62
2019-02-19T22:41:05.933Z,6.63
2019-02-19T22:43:35.517Z,6.63
2019-02-19T22:46:05.061Z,6.60
2019-02-19T22:48:34.669Z,6.62
2019-02-19T22:51:04.279Z,6.69
2019-02-19T22:53:55.884Z,6.65
2019-02-19T22:56:28.519Z,6.65
2019-02-19T22:58:58.142Z,6.66
2019-02-19T23:01:47.461Z,6.64
2019-02-19T23:04:17.005Z,6.60
2019-02-19T23:06:46.631Z,6.57
2019-02-19T23:09:16.204Z,6.52
2019-02-19T23:11:45.801Z,6.50
2019-02-19T23:14:15.372Z,6.47
2019-02-19T23:16:44.969Z,6.44
2019-02-19T23:19:14.554Z,6.44
2019-02-19T23:21:44.135Z,6.39
2019-02-19T23:24:13.667Z,6.28
2019-02-19T23:26:43.518Z,6.12
2019-02-19T23:29:13.073Z,6.08
2019-02-19T23:31:42.577Z,6.10
2019-02-19T23:34:12.170Z,6.10
2019-02-19T23:36:46.166Z,6.08
2019-02-19T23:39:15.746Z,5.98
2019-02-19T23:41:45.336Z,5.97
2019-02-19T23:44:14.891Z,5.98
2019-02-19T23:46:44.390Z,5.97
2019-02-19T23:49:13.937Z,5.95
2019-02-19T23:51:43.520Z,6.01
2019-02-19T23:54:13.038Z,6.05
2019-02-19T23:56:42.674Z,5.83
2019-02-19T23:59:12.275Z,5.76
